createdAt,value
2023-02-05T00:02:18.216Z,-2.90
2023-02-05T00:04:45.107Z,-2.90
2023-02-05T00:07:11.957Z,-2.90
2023-02-05T00:09:40.953Z,-2.90
2023-02-05T00:12:08.141Z,-2.90
2023-02-05T00:14:34.960Z,-2.90
2023-02-05T00:17:01.785Z,-3.00
2023-02-05T00:19:31.713Z,-3.00
2023-02-05T00:21:58.630Z,-3.10
2023-02-05T00:24:25.580Z,-3.10
2023-02-05T00:26:52.464Z,-3.10
2023-02-05T00:29:19.395Z,-3.10
2023-02-05T00:31:49.409Z,-3.20
2023-02-05T00:34:17.229Z,-3.10
2023-02-05T00:36:44.114Z,-3.10
2023-02-05T00:39:12.221Z,-3.10
2023-02-05T00:41:39.089Z,-3.10
2023-02-05T00:44:06.950Z,-3.10
2023-02-05T00:46:33.888Z,-3.10
2023-02-05T00:49:00.764Z,-3.10
2023-02-05T00:51:27.864Z,-3.10
2023-02-05T00:53:54.713Z,-3.10
2023-02-05T00:56:21.829Z,-3.10
2023-02-05T00:58:50.011Z,-3.10
2023-02-05T01:01:17.415Z,-3.10
2023-02-05T01:03:44.506Z,-3.10
2023-02-05T01:06:11.330Z,-3.10
2023-02-05T01:08:38.157Z,-3.10
2023-02-05T01:11:08.678Z,-3.10
2023-02-05T01:13:35.636Z,-3.10
2023-02-05T01:16:02.616Z,-3.00
2023-02-05T01:18:29.532Z,-3.00
2023-02-05T01:20:56.426Z,-3.10
2023-02-05T01:23:23.277Z,-3.10
2023-02-05T01:25:50.167Z,-3.10
2023-02-05T01:28:17.053Z,-3.10
2023-02-05T01:30:51.458Z,-3.10
2023-02-05T01:33:19.281Z,-3.10
2023-02-05T01:35:46.511Z,-3.10
2023-02-05T01:38:17.000Z,-3.10
2023-02-05T01:40:43.923Z,-3.10
2023-02-05T01:43:14.128Z,-3.10
2023-02-05T01:46:03.836Z,-3.10
2023-02-05T01:48:42.251Z,-3.00
2023-02-05T01:51:13.723Z,-3.10
2023-02-05T01:53:42.622Z,-3.10
2023-02-05T01:56:22.476Z,-3.10
2023-02-05T01:59:03.515Z,-3.10
2023-02-05T02:01:32.167Z,-3.20
2023-02-05T02:04:04.761Z,-3.20
2023-02-05T02:06:35.347Z,-3.20
2023-02-05T02:09:06.326Z,-3.30
2023-02-05T02:11:41.250Z,-3.20
2023-02-05T02:14:11.923Z,-3.40
2023-02-05T02:16:40.754Z,-3.50
2023-02-05T02:19:34.684Z,-3.70
2023-02-05T02:22:30.531Z,-3.80
2023-02-05T02:25:40.577Z,-3.90
2023-02-05T02:28:41.099Z,-3.90
2023-02-05T02:31:31.321Z,-3.90
2023-02-05T02:34:32.738Z,-3.80
2023-02-05T02:37:17.797Z,-3.70
2023-02-05T02:40:04.112Z,-3.60
2023-02-05T02:42:57.690Z,-3.50
2023-02-05T02:45:30.969Z,-3.40
2023-02-05T02:48:01.098Z,-3.30
2023-02-05T02:50:34.816Z,-3.30
2023-02-05T02:53:24.105Z,-3.30
2023-02-05T02:55:55.470Z,-3.20
2023-02-05T02:58:36.361Z,-3.20
2023-02-05T03:01:06.900Z,-3.10
2023-02-05T03:03:41.062Z,-3.10
2023-02-05T03:06:11.610Z,-3.10
2023-02-05T03:09:13.270Z,-3.10
2023-02-05T03:11:40.417Z,-3.00
2023-02-05T03:14:07.362Z,-3.00
2023-02-05T03:16:34.295Z,-3.00
2023-02-05T03:19:02.918Z,-3.00
2023-02-05T03:21:41.304Z,-3.00
2023-02-05T03:24:09.167Z,-3.00
2023-02-05T03:26:38.270Z,-3.20
2023-02-05T03:29:17.269Z,-3.40
2023-02-05T03:32:11.897Z,-3.70
2023-02-05T03:35:17.368Z,-3.80
2023-02-05T03:38:32.205Z,-4.00
2023-02-05T03:41:03.163Z,-4.20
2023-02-05T03:44:15.994Z,-4.20
2023-02-05T03:47:03.189Z,-4.30
2023-02-05T03:49:57.857Z,-4.40
2023-02-05T03:52:41.056Z,-4.50
2023-02-05T03:55:15.466Z,-4.60
2023-02-05T03:58:12.893Z,-4.70
2023-02-05T04:00:41.336Z,-4.70
2023-02-05T04:03:08.368Z,-4.70
2023-02-05T04:05:35.682Z,-4.70
2023-02-05T04:08:03.048Z,-4.80
2023-02-05T04:10:29.990Z,-4.80
2023-02-05T04:12:56.824Z,-4.80
2023-02-05T04:15:23.662Z,-4.80
2023-02-05T04:17:50.572Z,-4.90
2023-02-05T04:20:17.708Z,-4.90
2023-02-05T04:22:44.600Z,-4.80
2023-02-05T04:25:11.479Z,-4.80
2023-02-05T04:27:38.302Z,-4.80
2023-02-05T04:30:06.757Z,-4.70
2023-02-05T04:32:33.590Z,-4.70
2023-02-05T04:35:00.454Z,-4.70
2023-02-05T04:37:27.387Z,-4.80
2023-02-05T04:39:54.232Z,-4.80
2023-02-05T04:42:21.128Z,-4.70
2023-02-05T04:44:48.033Z,-4.80
2023-02-05T04:47:14.858Z,-4.80
2023-02-05T04:49:41.738Z,-4.80
2023-02-05T04:52:08.698Z,-4.80
2023-02-05T04:54:37.816Z,-4.70
2023-02-05T04:57:04.826Z,-4.60
2023-02-05T05:13:01.809Z,-4.60
2023-02-05T05:15:28.969Z,-3.70
2023-02-05T05:17:56.000Z,-3.90
2023-02-05T05:20:23.127Z,-4.00
2023-02-05T05:22:50.480Z,-4.10
2023-02-05T05:25:18.141Z,-4.10
2023-02-05T05:27:45.357Z,-4.20
2023-02-05T05:30:13.313Z,-4.20
2023-02-05T05:32:40.503Z,-4.40
2023-02-05T05:35:07.996Z,-4.50
2023-02-05T05:37:35.159Z,-4.60
2023-02-05T05:40:21.120Z,-4.70
2023-02-05T05:43:06.983Z,-4.80
2023-02-05T05:45:34.450Z,-4.90
2023-02-05T05:48:02.339Z,-5.10
2023-02-05T05:50:29.509Z,-5.10
2023-02-05T05:52:56.673Z,-5.10
2023-02-05T05:55:23.928Z,-5.10
2023-02-05T05:57:51.174Z,-5.10
2023-02-05T06:00:19.009Z,-5.20
2023-02-05T06:02:46.214Z,-5.30
2023-02-05T06:05:13.226Z,-5.30
2023-02-05T06:07:40.410Z,-5.40
2023-02-05T06:10:08.466Z,-5.40
2023-02-05T06:12:35.521Z,-5.50
2023-02-05T06:15:02.691Z,-5.50
2023-02-05T06:17:29.826Z,-5.60
2023-02-05T06:19:56.858Z,-5.60
2023-02-05T06:22:23.912Z,-5.60
2023-02-05T06:24:51.060Z,-5.70
2023-02-05T06:27:18.468Z,-5.70
2023-02-05T06:29:45.481Z,-5.70
2023-02-05T06:32:12.508Z,-5.70
2023-02-05T06:34:39.659Z,-5.80
2023-02-05T06:37:07.537Z,-5.80
2023-02-05T06:39:34.483Z,-5.80
2023-02-05T06:42:01.581Z,-5.90
2023-02-05T06:44:28.585Z,-5.90
2023-02-05T06:46:55.600Z,-5.80
2023-02-05T06:49:22.969Z,-5.80
2023-02-05T06:51:50.111Z,-5.80
2023-02-05T06:54:17.402Z,-5.70
2023-02-05T06:56:44.726Z,-5.60
2023-02-05T06:59:11.790Z,-5.50
2023-02-05T07:01:38.843Z,-5.40
2023-02-05T07:04:06.178Z,-5.30
2023-02-05T07:06:33.291Z,-5.20
2023-02-05T07:09:00.482Z,-5.20
2023-02-05T07:11:27.630Z,-5.10
2023-02-05T07:13:54.904Z,-5.00
2023-02-05T07:16:22.262Z,-4.80
2023-02-05T07:18:49.440Z,-4.70
2023-02-05T07:21:17.623Z,-4.50
2023-02-05T07:23:45.427Z,-4.50
2023-02-05T07:26:15.966Z,-4.50
2023-02-05T07:28:44.756Z,-4.40
2023-02-05T07:31:18.721Z,-4.30
2023-02-05T07:33:47.397Z,-4.20
2023-02-05T07:36:18.380Z,-4.10
2023-02-05T07:38:47.469Z,-4.00
2023-02-05T07:41:16.622Z,-3.90
2023-02-05T07:43:44.027Z,-3.90
2023-02-05T07:46:14.275Z,-3.80
2023-02-05T07:48:41.317Z,-3.70
2023-02-05T07:51:08.499Z,-3.60
2023-02-05T07:53:35.596Z,-3.40
2023-02-05T07:56:04.944Z,-3.30
2023-02-05T07:58:32.236Z,-3.30
2023-02-05T08:01:04.349Z,-3.20
2023-02-05T08:03:32.017Z,-3.20
2023-02-05T08:05:59.363Z,-3.10
2023-02-05T08:08:26.379Z,-3.00
2023-02-05T08:11:03.600Z,-2.90
2023-02-05T08:13:31.519Z,-2.80
2023-02-05T08:15:58.782Z,-2.80
2023-02-05T08:18:26.177Z,-2.70
2023-02-05T08:20:54.392Z,-2.70
2023-02-05T08:23:22.301Z,-2.70
2023-02-05T08:25:53.965Z,-2.60
2023-02-05T08:28:21.404Z,-2.60
2023-02-05T08:30:48.563Z,-2.40
2023-02-05T08:33:16.129Z,-2.40
2023-02-05T08:35:43.293Z,-2.30
2023-02-05T08:38:10.432Z,-2.20
2023-02-05T08:40:37.520Z,-2.10
2023-02-05T08:43:04.719Z,-2.00
2023-02-05T08:45:32.028Z,-1.90
2023-02-05T08:47:59.145Z,-1.80
2023-02-05T08:50:26.295Z,-1.70
2023-02-05T08:52:53.675Z,-1.60
2023-02-05T08:55:20.833Z,-1.50
2023-02-05T08:57:48.099Z,-1.40
2023-02-05T09:00:15.842Z,-1.40
2023-02-05T09:02:43.767Z,-1.30
2023-02-05T09:05:11.578Z,-1.20
2023-02-05T09:07:40.087Z,-1.20
2023-02-05T09:10:12.966Z,-1.10
2023-02-05T09:12:41.039Z,-1.10
2023-02-05T09:15:09.676Z,-1.00
2023-02-05T09:17:36.937Z,-1.00
2023-02-05T09:20:04.919Z,-0.90
2023-02-05T09:22:31.948Z,-0.80
2023-02-05T09:24:59.421Z,-0.80
2023-02-05T09:27:26.521Z,-0.80
2023-02-05T09:29:53.443Z,-0.90
2023-02-05T09:32:20.532Z,-0.80
2023-02-05T09:34:49.412Z,-0.70
2023-02-05T09:37:17.572Z,-0.60
2023-02-05T09:40:19.070Z,-0.50
2023-02-05T09:56:18.429Z,-0.30
2023-02-05T09:58:50.328Z,1.00
2023-02-05T10:01:45.102Z,1.10
2023-02-05T10:04:12.434Z,1.00
2023-02-05T10:07:05.100Z,0.90
2023-02-05T10:09:54.279Z,0.90
2023-02-05T10:12:50.247Z,0.70
2023-02-05T10:15:36.448Z,0.60
2023-02-05T10:18:23.782Z,0.60
2023-02-05T10:21:46.554Z,0.50
2023-02-05T10:24:50.548Z,0.60
2023-02-05T10:27:23.783Z,0.60
2023-02-05T10:30:20.619Z,0.60
2023-02-05T10:33:12.102Z,0.70
2023-02-05T10:36:01.261Z,0.70
2023-02-05T10:38:34.759Z,0.80
2023-02-05T10:41:16.713Z,0.90
2023-02-05T10:44:14.789Z,0.90
2023-02-05T10:46:46.061Z,0.90
2023-02-05T10:49:19.001Z,1.00
2023-02-05T10:51:46.309Z,0.90
2023-02-05T10:54:43.438Z,0.90
2023-02-05T10:57:17.508Z,1.00
2023-02-05T11:00:02.118Z,1.20
2023-02-05T11:02:39.258Z,1.20
2023-02-05T11:05:21.458Z,1.20
2023-02-05T11:07:54.361Z,1.20
2023-02-05T11:10:34.108Z,1.30
2023-02-05T11:13:20.197Z,1.30
2023-02-05T11:16:01.471Z,1.30
2023-02-05T11:18:35.994Z,1.30
2023-02-05T11:21:06.304Z,1.30
2023-02-05T11:23:39.688Z,1.40
2023-02-05T11:26:21.164Z,1.50
2023-02-05T11:28:48.094Z,1.40
2023-02-05T11:31:34.944Z,1.50
2023-02-05T11:34:17.323Z,1.70
2023-02-05T11:36:57.725Z,1.60
2023-02-05T11:39:38.635Z,1.70
2023-02-05T11:42:27.585Z,1.80
2023-02-05T11:45:01.871Z,1.80
2023-02-05T11:47:32.345Z,1.80
2023-02-05T11:50:00.342Z,2.00
2023-02-05T11:52:36.861Z,2.10
2023-02-05T11:55:06.217Z,2.20
2023-02-05T11:57:39.267Z,2.10
2023-02-05T12:00:09.171Z,2.30
2023-02-05T12:02:38.596Z,2.30
2023-02-05T12:05:20.995Z,2.30
2023-02-05T12:08:27.832Z,2.40
2023-02-05T12:11:28.518Z,2.50
2023-02-05T12:14:26.495Z,2.60
2023-02-05T12:17:05.082Z,2.70
2023-02-05T12:19:55.912Z,2.90
2023-02-05T12:22:56.986Z,2.90
2023-02-05T12:25:51.550Z,2.90
2023-02-05T12:28:41.541Z,3.00
2023-02-05T12:31:54.067Z,3.00
2023-02-05T12:35:11.926Z,3.00
2023-02-05T12:37:59.870Z,3.00
2023-02-05T12:41:22.403Z,2.90
2023-02-05T12:43:53.590Z,2.90
2023-02-05T12:46:48.985Z,3.00
2023-02-05T12:49:33.685Z,3.00
2023-02-05T12:52:55.868Z,3.10
2023-02-05T12:56:11.222Z,3.10
2023-02-05T12:58:46.310Z,3.10
2023-02-05T13:01:23.977Z,3.10
2023-02-05T13:03:57.032Z,3.20
2023-02-05T13:06:27.562Z,3.30
2023-02-05T13:09:25.842Z,3.20
2023-02-05T13:12:06.497Z,3.20
2023-02-05T13:15:08.472Z,3.10
2023-02-05T13:17:42.146Z,3.10
2023-02-05T13:20:51.390Z,3.20
2023-02-05T13:23:38.183Z,3.30
2023-02-05T13:26:25.461Z,3.40
2023-02-05T13:29:07.890Z,3.60
2023-02-05T13:31:48.646Z,3.70
2023-02-05T13:34:17.731Z,3.70
2023-02-05T13:37:00.562Z,3.60
2023-02-05T13:39:48.191Z,3.70
2023-02-05T13:42:44.406Z,3.60
2023-02-05T13:45:38.513Z,3.50
2023-02-05T13:49:10.281Z,3.40
2023-02-05T13:51:50.987Z,3.50
2023-02-05T13:54:17.955Z,3.50
2023-02-05T13:57:04.708Z,3.40
2023-02-05T13:59:51.398Z,3.40
2023-02-05T14:02:41.116Z,3.40
2023-02-05T14:05:09.849Z,3.20
2023-02-05T14:07:49.010Z,3.10
2023-02-05T14:10:33.516Z,3.20
2023-02-05T14:13:21.484Z,3.20
2023-02-05T14:15:49.869Z,3.30
2023-02-05T14:18:43.172Z,3.20
2023-02-05T14:21:31.830Z,3.10
2023-02-05T14:24:03.014Z,3.10
2023-02-05T14:26:52.827Z,3.10
2023-02-05T14:29:49.737Z,3.10
2023-02-05T14:32:28.593Z,3.00
2023-02-05T14:35:25.503Z,2.90
2023-02-05T14:38:00.334Z,2.80
2023-02-05T14:40:37.126Z,2.70
2023-02-05T14:43:27.293Z,2.60
2023-02-05T14:45:55.094Z,2.50
2023-02-05T14:48:34.161Z,2.30
2023-02-05T14:51:07.979Z,2.10
2023-02-05T14:53:38.024Z,2.10
2023-02-05T14:56:05.900Z,2.00
2023-02-05T14:58:44.463Z,1.90
2023-02-05T15:01:46.240Z,1.90
2023-02-05T15:04:31.932Z,1.70
2023-02-05T15:07:09.996Z,1.60
2023-02-05T15:09:51.579Z,1.50
2023-02-05T15:12:37.245Z,1.40
2023-02-05T15:15:33.820Z,1.30
2023-02-05T15:18:24.272Z,1.20
2023-02-05T15:20:59.067Z,1.10
2023-02-05T15:23:40.423Z,1.00
2023-02-05T15:26:33.887Z,1.00
2023-02-05T15:29:24.420Z,1.00
2023-02-05T15:32:36.061Z,0.90
2023-02-05T15:35:21.230Z,0.90
2023-02-05T15:38:09.986Z,0.90
2023-02-05T15:40:43.973Z,0.80
2023-02-05T15:43:20.496Z,0.80
2023-02-05T15:45:49.737Z,0.80
2023-02-05T15:48:25.877Z,0.70
2023-02-05T15:51:15.554Z,0.70
2023-02-05T15:53:51.093Z,0.70
2023-02-05T15:56:29.563Z,0.80
2023-02-05T15:59:25.006Z,0.80
2023-02-05T16:02:16.378Z,0.70
2023-02-05T16:04:43.301Z,0.70
2023-02-05T16:07:33.895Z,0.70
2023-02-05T16:10:16.008Z,0.70
2023-02-05T16:13:28.563Z,0.70
2023-02-05T16:16:03.559Z,0.70
2023-02-05T16:18:55.507Z,0.80
2023-02-05T16:21:48.194Z,0.90
2023-02-05T16:24:33.032Z,1.00
2023-02-05T16:27:37.891Z,1.00
2023-02-05T16:30:28.634Z,1.00
2023-02-05T16:32:58.962Z,1.00
2023-02-05T16:35:46.241Z,1.10
2023-02-05T16:38:21.209Z,1.10
2023-02-05T16:40:53.506Z,1.10
2023-02-05T16:43:37.284Z,1.20
2023-02-05T16:46:07.453Z,1.00
2023-02-05T16:48:48.110Z,1.10
2023-02-05T16:51:50.372Z,1.00
2023-02-05T16:54:20.561Z,0.80
2023-02-05T16:56:59.271Z,0.80
2023-02-05T16:59:34.022Z,0.70
2023-02-05T17:02:03.177Z,0.70
2023-02-05T17:04:39.090Z,0.70
2023-02-05T17:07:18.717Z,0.70
2023-02-05T17:09:45.739Z,0.50
2023-02-05T17:12:21.762Z,0.50
2023-02-05T17:15:03.235Z,0.50
2023-02-05T17:17:32.590Z,0.50
2023-02-05T17:20:16.116Z,0.50
2023-02-05T17:23:01.335Z,0.50
2023-02-05T17:25:51.378Z,0.40
2023-02-05T17:28:27.897Z,0.40
2023-02-05T17:31:00.445Z,0.30
2023-02-05T17:33:28.708Z,0.20
2023-02-05T17:35:55.771Z,0.20
2023-02-05T17:38:25.915Z,0.20
2023-02-05T17:41:15.719Z,0.20
2023-02-05T17:43:42.808Z,0.10
2023-02-05T17:46:15.039Z,0.00
2023-02-05T17:48:44.753Z,-0.10
2023-02-05T17:51:21.038Z,-0.10
2023-02-05T17:53:49.628Z,0.00
2023-02-05T17:56:19.291Z,0.00
2023-02-05T17:58:46.420Z,-0.20
2023-02-05T18:01:13.701Z,-0.30
2023-02-05T18:03:40.772Z,-0.30
2023-02-05T18:06:10.054Z,-0.30
2023-02-05T18:08:37.327Z,-0.30
2023-02-05T18:11:04.784Z,-0.30
2023-02-05T18:13:31.729Z,-0.30
2023-02-05T18:16:04.737Z,-0.40
2023-02-05T18:18:36.419Z,-0.30
2023-02-05T18:21:03.966Z,-0.40
2023-02-05T18:23:31.546Z,-0.40
2023-02-05T18:26:08.357Z,-0.40
2023-02-05T18:28:35.594Z,-0.50
2023-02-05T18:31:09.496Z,-0.60
2023-02-05T18:33:37.340Z,-0.60
2023-02-05T18:36:11.483Z,-0.70
2023-02-05T18:38:41.079Z,-0.80
2023-02-05T18:41:10.269Z,-0.80
2023-02-05T18:43:38.436Z,-0.70
2023-02-05T18:46:14.263Z,-0.70
2023-02-05T18:48:41.581Z,-0.70
2023-02-05T18:51:15.669Z,-0.70
2023-02-05T18:53:44.581Z,-0.70
2023-02-05T18:56:19.094Z,-0.70
2023-02-05T18:59:02.854Z,-0.70
2023-02-05T19:01:33.636Z,-0.70
2023-02-05T19:04:12.588Z,-0.60
2023-02-05T19:06:49.513Z,-0.70
2023-02-05T19:09:17.529Z,-0.70
2023-02-05T19:11:45.847Z,-0.80
2023-02-05T19:14:17.307Z,-0.90
2023-02-05T19:16:47.739Z,-0.90
2023-02-05T19:19:20.017Z,-1.00
2023-02-05T19:21:50.907Z,-1.00
2023-02-05T19:24:18.669Z,-1.10
2023-02-05T19:26:45.898Z,-1.00
2023-02-05T19:29:22.007Z,-1.00
2023-02-05T19:31:57.735Z,-1.00
2023-02-05T19:34:38.399Z,-1.10
2023-02-05T19:37:12.189Z,-1.20
2023-02-05T19:39:39.889Z,-1.20
2023-02-05T19:42:07.116Z,-1.20
2023-02-05T19:44:34.250Z,-1.20
2023-02-05T19:47:01.130Z,-1.20
2023-02-05T19:49:28.238Z,-1.30
2023-02-05T19:51:56.508Z,-1.30
2023-02-05T19:54:23.416Z,-1.30
2023-02-05T19:56:51.042Z,-1.30
2023-02-05T19:59:18.741Z,-1.30
2023-02-05T20:01:46.559Z,-1.30
2023-02-05T20:04:22.349Z,-1.20
2023-02-05T20:06:52.066Z,-1.20
2023-02-05T20:09:19.385Z,-1.20
2023-02-05T20:11:49.718Z,-1.20
2023-02-05T20:14:17.403Z,-1.20
2023-02-05T20:16:47.589Z,-1.20
2023-02-05T20:19:17.451Z,-1.20
2023-02-05T20:21:46.671Z,-1.10
2023-02-05T20:24:16.185Z,-1.10
2023-02-05T20:26:44.631Z,-1.10
2023-02-05T20:29:30.685Z,-1.10
2023-02-05T20:31:59.039Z,-1.10
2023-02-05T20:34:30.550Z,-1.20
2023-02-05T20:37:06.943Z,-1.20
2023-02-05T20:39:35.274Z,-1.30
2023-02-05T20:42:03.231Z,-1.30
2023-02-05T20:44:36.089Z,-1.40
2023-02-05T20:47:05.009Z,-1.40
2023-02-05T20:49:34.951Z,-1.40
2023-02-05T20:52:01.957Z,-1.30
2023-02-05T20:54:29.232Z,-1.30
2023-02-05T20:56:59.343Z,-1.30
2023-02-05T20:59:28.673Z,-1.30
2023-02-05T21:01:56.257Z,-1.30
2023-02-05T21:04:23.443Z,-1.30
2023-02-05T21:06:50.688Z,-1.20
2023-02-05T21:09:17.831Z,-1.30
2023-02-05T21:11:45.178Z,-1.20
2023-02-05T21:14:12.359Z,-1.20
2023-02-05T21:16:40.469Z,-1.20
2023-02-05T21:19:09.042Z,-1.20
2023-02-05T21:21:37.336Z,-1.20
2023-02-05T21:24:15.538Z,-1.30
2023-02-05T21:26:46.839Z,-1.30
2023-02-05T21:29:18.482Z,-1.30
2023-02-05T21:31:53.067Z,-1.30
2023-02-05T21:34:24.965Z,-1.30
2023-02-05T21:36:52.737Z,-1.30
2023-02-05T21:39:22.531Z,-1.40
2023-02-05T21:41:53.994Z,-1.30
2023-02-05T21:44:21.448Z,-1.40
2023-02-05T21:46:48.387Z,-1.30
2023-02-05T21:49:15.549Z,-1.30
2023-02-05T21:51:42.540Z,-1.30
2023-02-05T21:54:11.052Z,-1.30
2023-02-05T21:56:41.822Z,-1.30
2023-02-05T21:59:11.862Z,-1.30
2023-02-05T22:01:39.676Z,-1.30
2023-02-05T22:04:14.485Z,-1.30
2023-02-05T22:06:42.300Z,-1.40
2023-02-05T22:09:13.094Z,-1.40
2023-02-05T22:11:40.587Z,-1.40
2023-02-05T22:14:08.410Z,-1.40
2023-02-05T22:16:36.572Z,-1.40
2023-02-05T22:19:05.348Z,-1.40
2023-02-05T22:21:40.606Z,-1.30
2023-02-05T22:24:11.446Z,-1.30
2023-02-05T22:26:39.260Z,-1.30
2023-02-05T22:29:10.540Z,-1.20
2023-02-05T22:31:37.436Z,-1.20
2023-02-05T22:34:05.460Z,-1.20
2023-02-05T22:36:34.725Z,-1.20
2023-02-05T22:39:02.430Z,-1.20
2023-02-05T22:41:36.374Z,-1.20
2023-02-05T22:44:07.435Z,-1.20
2023-02-05T22:46:40.302Z,-1.30
2023-02-05T22:49:07.161Z,-1.40
2023-02-05T22:51:38.528Z,-1.40
2023-02-05T22:54:07.254Z,-1.50
2023-02-05T22:56:36.943Z,-1.50
2023-02-05T22:59:03.943Z,-1.50
2023-02-05T23:01:36.134Z,-1.60
2023-02-05T23:04:08.601Z,-1.60
2023-02-05T23:06:40.158Z,-1.60
2023-02-05T23:09:14.827Z,-1.60
2023-02-05T23:11:42.463Z,-1.70
2023-02-05T23:14:12.842Z,-1.80
2023-02-05T23:16:43.107Z,-1.70
2023-02-05T23:19:18.720Z,-1.80
2023-02-05T23:21:47.158Z,-1.90
2023-02-05T23:24:14.911Z,-1.90
2023-02-05T23:26:46.710Z,-1.90
2023-02-05T23:29:16.117Z,-2.00
2023-02-05T23:31:43.381Z,-1.90
2023-02-05T23:34:11.093Z,-2.00
2023-02-05T23:36:38.316Z,-1.90
2023-02-05T23:39:05.692Z,-1.90
2023-02-05T23:41:35.984Z,-2.00
2023-02-05T23:44:12.122Z,-2.10
2023-02-05T23:46:41.145Z,-2.10
2023-02-05T23:49:09.226Z,-2.10
2023-02-05T23:51:36.438Z,-2.10
2023-02-05T23:54:04.562Z,-2.10
2023-02-05T23:56:32.398Z,-2.20
2023-02-05T23:59:00.009Z,-2.20
